Time;durP1;ratioP1;P1;durP2;ratioP2;P2;SDS_P1;SDS_P2;PMS_P1;PMS_P2;Temp;Humidity;BMP_temperature;BMP_pressure;BME280_temperature;BME280_humidity;BME280_pressure;Samples;Min_cycle;Max_cycle;Signal;HPM_P1;HPM_P2
2022/06/27 00:00:46;;;;;;;3.70;3.40;;;25.30;96.90;;;;;;6134749;28;89092;-66
2022/06/27 00:03:49;;;;;;;3.58;3.28;;;25.30;96.90;;;;;;6140911;28;89070;-67
2022/06/27 00:06:51;;;;;;;3.78;3.47;;;25.30;96.80;;;;;;6145281;28;88315;-67
2022/06/27 00:09:53;;;;;;;3.45;3.15;;;25.20;96.70;;;;;;6135347;28;89606;-67
2022/06/27 00:12:56;;;;;;;3.97;3.67;;;25.30;96.80;;;;;;6151498;28;87989;-67
2022/06/27 00:15:58;;;;;;;3.38;3.10;;;25.30;96.80;;;;;;6140008;28;90701;-66
2022/06/27 00:19:01;;;;;;;3.58;3.28;;;25.30;96.80;;;;;;6158674;28;89592;-67
2022/06/27 00:22:04;;;;;;;3.63;3.33;;;25.20;96.80;;;;;;6142458;28;89375;-67
2022/06/27 00:25:08;;;;;;;3.42;3.13;;;25.20;96.80;;;;;;6151533;28;90598;-67
2022/06/27 00:28:10;;;;;;;3.70;3.40;;;25.20;96.80;;;;;;6153704;28;89113;-67
2022/06/27 00:31:12;;;;;;;3.40;3.10;;;25.30;96.80;;;;;;6157275;28;89663;-67
2022/06/27 00:34:16;;;;;;;3.80;3.50;;;25.30;96.90;;;;;;6148346;28;89013;-67
2022/06/27 00:37:18;;;;;;;3.92;3.63;;;25.20;96.90;;;;;;6141851;28;88453;-67
2022/06/27 00:40:20;;;;;;;3.63;3.33;;;25.30;96.90;;;;;;6142832;28;89527;-67
2022/06/27 00:43:22;;;;;;;4.10;3.78;;;25.30;96.90;;;;;;6158200;28;89234;-67
2022/06/27 00:46:24;;;;;;;4.00;3.70;;;25.30;96.90;;;;;;6138560;28;90049;-67
2022/06/27 00:49:27;;;;;;;3.90;3.60;;;25.30;96.90;;;;;;6134023;28;89261;-67
2022/06/27 00:52:29;;;;;;;4.10;3.80;;;25.30;96.90;;;;;;6138933;28;89672;-67
2022/06/27 00:55:31;;;;;;;4.03;3.72;;;25.30;96.80;;;;;;6145135;28;89044;-67
2022/06/27 00:58:33;;;;;;;4.03;3.72;;;25.30;97.20;;;;;;6146825;28;89433;-67
2022/06/27 01:01:35;;;;;;;3.83;3.53;;;25.30;96.80;;;;;;6148454;28;91631;-67
2022/06/27 01:04:39;;;;;;;3.97;3.67;;;25.30;96.80;;;;;;6155785;28;89318;-66
2022/06/27 01:07:41;;;;;;;3.88;3.58;;;25.30;96.80;;;;;;6158566;28;88374;-67
2022/06/27 01:10:44;;;;;;;4.07;3.78;;;25.30;96.70;;;;;;6154530;28;87966;-67
2022/06/27 01:13:46;;;;;;;3.70;3.40;;;25.30;96.70;;;;;;6151959;28;89149;-67
2022/06/27 01:16:48;;;;;;;3.55;3.25;;;25.20;96.70;;;;;;6158029;28;89966;-67
2022/06/27 01:19:51;;;;;;;4.00;3.70;;;25.30;96.80;;;;;;6151135;28;89378;-67
2022/06/27 01:22:55;;;;;;;3.58;3.28;;;25.20;96.80;;;;;;6138482;28;89051;-67
2022/06/27 01:25:57;;;;;;;3.85;3.55;;;25.30;96.90;;;;;;6145654;28;89087;-67
2022/06/27 01:28:59;;;;;;;4.00;3.70;;;25.30;96.90;;;;;;6149108;28;89068;-67
2022/06/27 01:32:01;;;;;;;4.00;3.70;;;25.20;96.90;;;;;;6143114;28;89188;-67
2022/06/27 01:35:04;;;;;;;4.25;3.95;;;25.30;96.90;;;;;;6153589;28;89669;-67
2022/06/27 01:38:08;;;;;;;4.68;4.28;;;25.30;96.90;;;;;;6157641;28;89943;-67
2022/06/27 01:41:10;;;;;;;3.85;3.55;;;25.30;96.80;;;;;;6155488;28;89102;-67
2022/06/27 01:44:13;;;;;;;4.38;3.97;;;25.30;96.80;;;;;;6157505;28;89423;-67
2022/06/27 01:47:15;;;;;;;4.20;3.80;;;25.20;96.70;;;;;;6147276;28;90424;-67
2022/06/27 01:50:20;;;;;;;4.65;4.25;;;25.20;96.70;;;;;;6145756;28;89265;-67
2022/06/27 01:53:24;;;;;;;4.40;4.07;;;25.30;96.70;;;;;;6145199;28;89165;-67
2022/06/27 01:56:26;;;;;;;4.40;4.00;;;25.30;96.70;;;;;;6131534;28;89083;-67
2022/06/27 01:59:30;;;;;;;4.63;4.22;;;25.20;96.70;;;;;;6137166;28;89019;-67
2022/06/27 02:02:32;;;;;;;4.22;3.92;;;25.30;96.80;;;;;;6133241;28;89433;-67
2022/06/27 02:05:34;;;;;;;4.40;4.00;;;25.30;96.90;;;;;;6145804;28;89274;-67
2022/06/27 02:08:41;;;;;;;4.03;3.72;;;25.20;96.80;;;;;;6143748;28;88337;-67
2022/06/27 02:11:49;;;;;;;4.40;4.00;;;25.30;96.90;;;;;;6143494;28;88887;-67
2022/06/27 02:14:52;;;;;;;4.60;4.20;;;25.30;96.90;;;;;;6145992;28;89101;-67
2022/06/27 02:17:54;;;;;;;4.47;4.18;;;25.30;96.90;;;;;;6153232;28;90108;-67
2022/06/27 02:20:57;;;;;;;4.40;4.00;;;25.20;96.90;;;;;;6152484;28;89149;-67
2022/06/27 02:24:00;;;;;;;4.43;4.03;;;25.30;96.80;;;;;;6138892;28;89080;-66
2022/06/27 02:27:04;;;;;;;4.25;3.95;;;25.30;96.70;;;;;;6135849;28;89081;-66
2022/06/27 02:30:06;;;;;;;5.18;4.68;;;25.30;96.70;;;;;;6154194;28;89249;-67
2022/06/27 02:33:09;;;;;;;4.63;4.22;;;25.20;96.70;;;;;;6147419;28;89034;-67
2022/06/27 02:36:14;;;;;;;4.20;3.90;;;25.20;96.70;;;;;;6147729;28;89146;-67
2022/06/27 02:39:21;;;;;;;4.53;4.13;;;25.30;96.70;;;;;;6153941;28;87314;-67
2022/06/27 02:42:24;;;;;;;4.80;4.40;;;25.30;96.70;;;;;;6151986;28;89069;-67
2022/06/27 02:45:29;;;;;;;4.60;4.20;;;25.30;96.70;;;;;;6145138;28;89260;-67
2022/06/27 02:48:33;;;;;;;4.50;4.10;;;25.30;96.80;;;;;;6151189;28;90118;-67
2022/06/27 02:51:43;;;;;;;4.13;3.83;;;25.30;96.80;;;;;;6140225;28;89057;-67
2022/06/27 02:54:50;;;;;;;3.70;3.40;;;25.40;96.90;;;;;;6147524;28;89066;-67
2022/06/27 02:57:57;;;;;;;4.55;4.15;;;25.30;96.90;;;;;;6143952;28;93188;-67
2022/06/27 03:01:00;;;;;;;4.10;3.80;;;25.30;96.90;;;;;;6132574;28;89073;-67
2022/06/27 03:04:02;;;;;;;4.43;4.03;;;25.30;96.90;;;;;;6152915;28;89050;-67
2022/06/27 03:07:05;;;;;;;4.30;4.00;;;25.30;96.90;;;;;;6142607;28;89076;-67
2022/06/27 03:10:10;;;;;;;5.05;4.65;;;25.30;96.90;;;;;;6154721;28;88280;-67
2022/06/27 03:13:13;;;;;;;4.68;4.30;;;25.30;96.80;;;;;;6156324;28;88265;-67
2022/06/27 03:16:17;;;;;;;4.47;4.15;;;25.30;96.80;;;;;;6136420;28;89101;-67
2022/06/27 03:19:19;;;;;;;4.57;4.18;;;25.30;96.80;;;;;;6138750;28;90031;-67
2022/06/27 03:22:21;;;;;;;4.35;4.05;;;25.30;96.80;;;;;;6140773;28;89142;-67
2022/06/27 03:25:25;;;;;;;4.95;4.55;;;25.30;96.80;;;;;;6145712;28;88975;-67
2022/06/27 03:28:27;;;;;;;4.60;4.20;;;25.30;96.70;;;;;;6135872;28;88192;-66
2022/06/27 03:31:30;;;;;;;4.32;4.03;;;25.20;96.70;;;;;;6158064;28;89095;-67
2022/06/27 03:34:32;;;;;;;4.45;4.05;;;25.30;96.80;;;;;;6147194;28;89113;-67
2022/06/27 03:37:35;;;;;;;4.18;3.88;;;25.30;96.80;;;;;;6136561;28;89440;-66
2022/06/27 03:40:39;;;;;;;4.18;3.88;;;25.20;96.80;;;;;;6148475;28;87541;-67
2022/06/27 03:43:41;;;;;;;4.70;4.30;;;25.20;96.80;;;;;;6148476;28;89174;-67
2022/06/27 03:46:43;;;;;;;4.10;3.80;;;25.20;96.90;;;;;;6147357;28;89092;-67
2022/06/27 03:50:03;;;;;;;4.80;4.40;;;25.30;96.90;;;;;;6147168;28;88861;-67
2022/06/27 03:53:05;;;;;;;4.57;4.20;;;25.30;96.90;;;;;;6152340;28;89127;-67
2022/06/27 03:56:08;;;;;;;4.60;4.20;;;25.30;96.90;;;;;;6159046;28;89498;-67
2022/06/27 03:59:10;;;;;;;4.68;4.28;;;25.20;96.80;;;;;;6156347;28;89068;-67
2022/06/27 04:02:14;;;;;;;4.25;3.95;;;25.30;96.90;;;;;;6147891;28;88418;-67
2022/06/27 04:05:16;;;;;;;4.65;4.30;;;25.30;96.90;;;;;;6136235;28;89529;-67
2022/06/27 04:08:18;;;;;;;4.72;4.32;;;25.30;96.90;;;;;;6135758;28;90333;-67
2022/06/27 04:11:22;;;;;;;4.28;3.97;;;25.30;96.90;;;;;;6136402;28;87571;-67
2022/06/27 04:14:24;;;;;;;4.43;4.13;;;25.30;96.90;;;;;;6136768;28;89176;-67
2022/06/27 04:17:26;;;;;;;4.40;4.00;;;25.30;96.90;;;;;;6134685;28;89137;-67
2022/06/27 04:20:28;;;;;;;4.30;4.00;;;25.20;96.90;;;;;;6148670;28;90451;-67
2022/06/27 04:23:30;;;;;;;4.00;3.70;;;25.20;96.90;;;;;;6140845;28;89190;-67
2022/06/27 04:26:33;;;;;;;4.32;3.92;;;25.30;96.90;;;;;;6150758;28;89553;-67
2022/06/27 04:29:35;;;;;;;4.32;3.92;;;25.30;96.90;;;;;;6157584;28;89082;-67
2022/06/27 04:32:37;;;;;;;4.43;4.03;;;25.20;96.90;;;;;;6148990;28;89380;-67
2022/06/27 04:35:40;;;;;;;4.75;4.35;;;25.20;96.90;;;;;;6136248;28;88322;-66
2022/06/27 04:38:42;;;;;;;4.47;4.18;;;25.30;97.00;;;;;;6135372;28;88016;-67
2022/06/27 04:41:46;;;;;;;4.25;3.95;;;25.20;97.00;;;;;;6147464;28;88354;-67
2022/06/27 04:44:47;;;;;;;4.22;3.92;;;25.30;97.00;;;;;;6141200;28;88759;-67
2022/06/27 04:47:51;;;;;;;4.40;4.00;;;25.30;96.90;;;;;;6138481;28;89141;-67
2022/06/27 04:50:53;;;;;;;4.40;4.00;;;25.30;96.90;;;;;;6134647;28;90416;-67
2022/06/27 04:53:55;;;;;;;4.38;4.07;;;25.30;96.90;;;;;;6135584;28;89587;-67
2022/06/27 04:56:59;;;;;;;4.35;4.05;;;25.30;96.90;;;;;;6147128;28;89173;-67
2022/06/27 05:00:01;;;;;;;4.30;4.00;;;25.30;97.00;;;;;;6147773;28;87935;-66
2022/06/27 05:03:04;;;;;;;4.15;3.85;;;25.30;97.00;;;;;;6134395;28;87680;-67
2022/06/27 05:06:06;;;;;;;4.35;4.00;;;25.30;97.00;;;;;;6137390;28;89066;-67
2022/06/27 05:09:08;;;;;;;4.30;3.90;;;25.30;96.90;;;;;;6141722;28;89258;-67
2022/06/27 05:12:11;;;;;;;4.30;4.00;;;25.30;96.90;;;;;;6140150;28;88733;-67
2022/06/27 05:15:14;;;;;;;4.32;4.03;;;25.30;96.90;;;;;;6145473;28;88952;-66
2022/06/27 05:18:16;;;;;;;4.32;3.95;;;25.30;97.00;;;;;;6135652;28;89336;-65
2022/06/27 05:21:18;;;;;;;4.95;4.50;;;25.30;97.00;;;;;;6156867;28;90390;-67
2022/06/27 05:24:20;;;;;;;4.80;4.40;;;25.30;97.00;;;;;;6156553;28;89342;-67
2022/06/27 05:27:23;;;;;;;4.38;4.07;;;25.30;97.00;;;;;;6158730;28;89111;-67
2022/06/27 05:30:26;;;;;;;4.38;4.07;;;25.30;97.10;;;;;;6133580;28;89164;-66
2022/06/27 05:33:29;;;;;;;4.63;4.30;;;25.30;97.10;;;;;;6147450;28;89104;-67
2022/06/27 05:36:31;;;;;;;4.55;4.15;;;25.30;97.10;;;;;;6154248;28;89678;-67
2022/06/27 05:39:34;;;;;;;4.57;4.18;;;25.30;97.20;;;;;;6146896;28;89107;-67
2022/06/27 05:42:37;;;;;;;4.57;4.20;;;25.30;97.20;;;;;;6157437;28;88434;-67
2022/06/27 05:45:40;;;;;;;4.63;4.22;;;25.30;97.20;;;;;;6158045;28;89409;-67
2022/06/27 05:48:42;;;;;;;4.65;4.28;;;25.30;97.20;;;;;;6135252;28;87864;-67
2022/06/27 05:51:44;;;;;;;4.03;3.72;;;25.40;97.30;;;;;;6144613;28;88941;-67
2022/06/27 05:54:46;;;;;;;4.13;3.83;;;25.30;97.30;;;;;;6151617;28;89142;-67
2022/06/27 05:57:50;;;;;;;4.60;4.20;;;25.30;97.20;;;;;;6138851;28;87881;-67
2022/06/27 06:00:52;;;;;;;4.90;4.50;;;25.40;97.30;;;;;;6133435;28;89399;-67
2022/06/27 06:03:56;;;;;;;4.70;4.30;;;25.40;97.30;;;;;;6143679;28;89049;-67
2022/06/27 06:06:58;;;;;;;4.85;4.45;;;25.40;97.30;;;;;;6143588;28;88789;-67
2022/06/27 06:10:00;;;;;;;4.53;4.15;;;25.40;97.30;;;;;;6145800;28;89082;-67
2022/06/27 06:13:04;;;;;;;4.50;4.20;;;25.40;97.30;;;;;;6156633;28;88376;-66
2022/06/27 06:16:10;;;;;;;4.70;4.30;;;25.40;97.30;;;;;;6156623;28;89003;-66
2022/06/27 06:19:12;;;;;;;4.80;4.40;;;25.40;97.30;;;;;;6153368;28;89043;-67
2022/06/27 06:22:14;;;;;;;5.00;4.60;;;25.40;97.30;;;;;;6138016;28;90049;-66
2022/06/27 06:25:16;;;;;;;4.90;4.50;;;25.40;97.30;;;;;;6132102;28;89134;-67
2022/06/27 06:28:20;;;;;;;4.80;4.40;;;25.40;97.40;;;;;;6140065;28;89138;-67
2022/06/27 06:31:23;;;;;;;4.95;4.55;;;25.40;97.40;;;;;;6148057;28;89229;-67
2022/06/27 06:34:25;;;;;;;4.43;4.00;;;25.40;97.40;;;;;;6156755;28;89337;-67
2022/06/27 06:37:28;;;;;;;4.88;4.47;;;25.40;97.40;;;;;;6155105;28;89401;-66
2022/06/27 06:40:30;;;;;;;4.55;4.18;;;25.40;97.40;;;;;;6156355;28;87933;-67
2022/06/27 06:43:34;;;;;;;4.63;4.22;;;25.40;97.50;;;;;;6142471;28;88696;-67
2022/06/27 06:46:36;;;;;;;4.93;4.47;;;25.50;97.50;;;;;;6152944;28;89242;-67
2022/06/27 06:49:39;;;;;;;4.95;4.55;;;25.50;97.50;;;;;;6156470;28;89382;-67
2022/06/27 06:52:41;;;;;;;4.82;4.43;;;25.50;97.40;;;;;;6149655;28;92993;-67
2022/06/27 06:55:44;;;;;;;4.55;4.15;;;25.50;97.40;;;;;;6159143;28;89193;-67
2022/06/27 06:58:47;;;;;;;4.22;3.92;;;25.50;97.30;;;;;;6148165;28;89286;-67
2022/06/27 07:01:50;;;;;;;5.15;4.75;;;25.50;97.30;;;;;;6146709;28;87713;-67
2022/06/27 07:04:52;;;;;;;4.85;4.45;;;25.50;97.30;;;;;;6145336;28;88066;-67
2022/06/27 07:07:55;;;;;;;4.90;4.50;;;25.50;97.30;;;;;;6140553;28;89135;-67
2022/06/27 07:10:57;;;;;;;4.75;4.35;;;25.50;97.40;;;;;;6138224;28;89125;-67
2022/06/27 07:14:01;;;;;;;4.93;4.53;;;25.50;97.40;;;;;;6151166;28;88499;-67
2022/06/27 07:17:03;;;;;;;4.88;4.47;;;25.50;97.40;;;;;;6145926;28;89264;-66
2022/06/27 07:20:06;;;;;;;4.93;4.53;;;25.50;97.40;;;;;;6145097;28;89068;-67
2022/06/27 07:23:09;;;;;;;5.00;4.60;;;25.50;97.40;;;;;;6141995;28;89993;-67
2022/06/27 07:26:11;;;;;;;4.53;4.13;;;25.50;97.50;;;;;;6141983;28;89085;-67
2022/06/27 07:29:15;;;;;;;5.07;4.68;;;25.50;97.80;;;;;;6141774;28;89116;-67
2022/06/27 07:32:18;;;;;;;5.22;4.65;;;25.50;97.80;;;;;;6154212;28;89097;-67
2022/06/27 07:35:20;;;;;;;4.90;4.50;;;25.50;97.40;;;;;;6142545;28;89360;-67
2022/06/27 07:38:22;;;;;;;4.63;4.28;;;25.50;97.30;;;;;;6149837;28;89173;-67
2022/06/27 07:41:24;;;;;;;5.10;4.70;;;25.50;97.40;;;;;;6143620;28;89526;-67
2022/06/27 07:44:28;;;;;;;4.75;4.35;;;25.50;97.30;;;;;;6147626;28;88213;-67
2022/06/27 07:47:30;;;;;;;4.45;4.15;;;25.50;97.40;;;;;;6141341;28;89104;-67
2022/06/27 07:50:39;;;;;;;4.85;4.45;;;25.60;97.80;;;;;;6149448;28;89100;-67
2022/06/27 07:53:42;;;;;;;4.57;4.18;;;25.50;97.50;;;;;;6134427;28;90748;-67
2022/06/27 07:56:46;;;;;;;4.60;4.30;;;25.50;97.50;;;;;;6146847;28;89588;-67
2022/06/27 07:59:51;;;;;;;4.78;4.45;;;25.50;97.50;;;;;;6144435;28;89450;-67
2022/06/27 08:02:53;;;;;;;4.50;4.13;;;25.50;97.50;;;;;;6146587;28;88894;-67
2022/06/27 08:05:56;;;;;;;4.80;4.40;;;25.50;97.60;;;;;;6146825;28;87882;-67
2022/06/27 08:09:00;;;;;;;4.75;4.35;;;25.50;97.60;;;;;;6146815;28;89156;-67
2022/06/27 08:12:03;;;;;;;4.50;4.20;;;25.50;97.70;;;;;;6143867;28;87817;-66
2022/06/27 08:15:09;;;;;;;4.68;4.28;;;25.50;97.60;;;;;;6137477;28;88526;-67
2022/06/27 08:18:11;;;;;;;4.95;4.55;;;25.50;97.60;;;;;;6156204;28;89405;-67
2022/06/27 08:21:14;;;;;;;5.10;4.70;;;25.50;97.60;;;;;;6140382;28;89153;-67
2022/06/27 08:24:17;;;;;;;5.00;4.60;;;25.50;97.60;;;;;;6146006;28;90028;-67
2022/06/27 08:27:20;;;;;;;4.50;4.20;;;25.50;97.60;;;;;;6147064;28;89123;-67
2022/06/27 08:30:25;;;;;;;4.30;4.00;;;25.50;97.70;;;;;;6148693;28;89032;-66
2022/06/27 08:33:27;;;;;;;4.63;4.22;;;25.50;97.60;;;;;;6153963;28;89024;-67
2022/06/27 08:36:30;;;;;;;4.55;4.20;;;25.50;97.70;;;;;;6155611;28;89065;-67
2022/06/27 08:39:32;;;;;;;4.97;4.57;;;25.50;97.60;;;;;;6146161;28;89642;-67
2022/06/27 08:42:34;;;;;;;4.75;4.35;;;25.50;97.70;;;;;;6145359;28;89119;-67
2022/06/27 08:45:38;;;;;;;4.90;4.50;;;25.50;97.70;;;;;;6150030;28;88674;-67
2022/06/27 08:48:41;;;;;;;4.72;4.32;;;25.50;97.70;;;;;;6141478;28;89028;-67
2022/06/27 08:51:43;;;;;;;4.22;3.92;;;25.50;97.70;;;;;;6144491;28;89210;-67
2022/06/27 08:54:47;;;;;;;4.47;4.15;;;25.50;97.70;;;;;;6144540;28;90059;-67
2022/06/27 08:57:49;;;;;;;4.90;4.50;;;25.50;97.80;;;;;;6137165;28;88987;-67
2022/06/27 09:00:53;;;;;;;4.57;4.18;;;25.50;97.70;;;;;;6143307;28;89219;-67
2022/06/27 09:04:00;;;;;;;4.30;4.00;;;25.50;97.70;;;;;;6145372;28;89130;-67
2022/06/27 09:07:02;;;;;;;4.20;3.90;;;25.50;97.80;;;;;;6145122;28;89587;-67
2022/06/27 09:10:24;;;;;;;4.35;4.00;;;25.60;97.80;;;;;;6148405;28;89211;-67
2022/06/27 09:13:27;;;;;;;4.80;4.40;;;25.50;97.80;;;;;;6157646;28;89491;-67
2022/06/27 09:16:30;;;;;;;5.00;4.60;;;25.60;97.70;;;;;;6144975;28;87247;-67
2022/06/27 09:19:50;;;;;;;4.25;3.95;;;25.60;97.80;;;;;;6146583;28;89457;-67
2022/06/27 09:22:52;;;;;;;4.68;4.28;;;25.60;97.90;;;;;;6135886;28;87896;-67
2022/06/27 09:25:59;;;;;;;4.47;4.07;;;25.50;97.90;;;;;;6152364;28;89990;-67
2022/06/27 09:29:03;;;;;;;4.40;4.10;;;25.50;97.90;;;;;;6151128;28;89095;-67
2022/06/27 09:32:11;;;;;;;4.55;4.15;;;25.50;98.00;;;;;;6150379;28;89046;-67
2022/06/27 09:35:23;;;;;;;4.25;3.95;;;25.50;98.00;;;;;;6157246;28;89010;-67
2022/06/27 09:38:27;;;;;;;4.35;4.05;;;25.50;98.10;;;;;;6138364;28;89067;-67
2022/06/27 09:41:31;;;;;;;4.22;3.92;;;25.50;98.10;;;;;;6133837;28;89564;-67
2022/06/27 09:44:35;;;;;;;4.10;3.80;;;25.50;98.10;;;;;;6146264;28;89398;-67
2022/06/27 09:47:39;;;;;;;4.55;4.25;;;25.50;98.10;;;;;;6138373;28;88535;-67
2022/06/27 09:50:42;;;;;;;4.20;3.90;;;25.60;98.10;;;;;;6142655;28;89422;-67
2022/06/27 09:53:50;;;;;;;4.47;4.18;;;25.60;98.10;;;;;;6141699;28;89202;-67
2022/06/27 09:56:52;;;;;;;4.82;4.32;;;25.60;98.10;;;;;;6132954;28;89978;-67
2022/06/27 09:59:54;;;;;;;4.05;3.75;;;25.60;98.10;;;;;;6134320;28;89109;-67
2022/06/27 10:02:59;;;;;;;4.30;4.00;;;25.60;98.10;;;;;;6153269;28;89129;-67
2022/06/27 10:06:01;;;;;;;4.32;4.03;;;25.60;98.10;;;;;;6147196;28;89234;-67
2022/06/27 10:09:04;;;;;;;4.20;3.90;;;25.60;98.00;;;;;;6140033;28;89376;-68
2022/06/27 10:12:21;;;;;;;4.35;3.95;;;25.60;98.50;;;;;;6140051;28;89093;-67
2022/06/27 10:15:26;;;;;;;3.90;3.60;;;25.60;98.10;;;;;;6143554;28;89189;-67
2022/06/27 10:18:53;;;;;;;3.67;3.45;;;25.60;98.10;;;;;;6140469;28;87317;-66
2022/06/27 10:21:56;;;;;;;4.32;4.03;;;25.50;98.10;;;;;;6136144;28;90412;-67
2022/06/27 10:25:41;;;;;;;4.38;3.97;;;25.60;98.10;;;;;;6151723;28;89288;-67
2022/06/27 10:28:43;;;;;;;4.00;3.70;;;25.60;98.10;;;;;;6127359;28;88988;-67
2022/06/27 10:31:46;;;;;;;4.28;3.92;;;25.50;98.60;;;;;;6137701;28;89014;-67
2022/06/27 10:35:10;;;;;;;3.90;3.60;;;25.60;98.60;;;;;;6136776;28;89820;-67
2022/06/27 10:38:22;;;;;;;4.15;3.85;;;25.60;98.30;;;;;;6139091;28;89192;-67
2022/06/27 10:41:41;;;;;;;4.10;3.80;;;25.60;98.30;;;;;;6134385;28;89221;-67
2022/06/27 10:44:43;;;;;;;4.10;3.80;;;25.60;98.30;;;;;;6140719;28;89110;-67
2022/06/27 10:47:46;;;;;;;4.40;4.10;;;25.60;98.30;;;;;;6136402;28;89047;-67
2022/06/27 10:50:49;;;;;;;4.10;3.80;;;25.60;98.20;;;;;;6145407;28;88395;-67
2022/06/27 10:53:52;;;;;;;4.18;3.88;;;25.60;98.10;;;;;;6145078;28;89045;-66
2022/06/27 10:56:55;;;;;;;4.15;3.80;;;25.60;98.10;;;;;;6134764;28;89132;-67
2022/06/27 10:59:58;;;;;;;4.38;3.97;;;25.60;98.10;;;;;;6155468;28;90117;-67
2022/06/27 11:03:01;;;;;;;4.22;3.83;;;25.60;98.10;;;;;;6140620;28;89218;-67
2022/06/27 11:06:05;;;;;;;4.05;3.75;;;25.60;98.10;;;;;;6154860;28;89445;-67
2022/06/27 11:09:07;;;;;;;3.90;3.60;;;25.60;98.20;;;;;;6140114;28;88986;-67
2022/06/27 11:12:10;;;;;;;4.20;3.90;;;25.60;98.10;;;;;;6143089;28;89088;-67
2022/06/27 11:15:12;;;;;;;3.80;3.50;;;25.60;98.30;;;;;;6148857;28;89269;-67
2022/06/27 11:18:14;;;;;;;4.25;3.95;;;25.60;98.40;;;;;;6151608;28;89157;-67
2022/06/27 11:21:19;;;;;;;4.03;3.72;;;25.60;98.50;;;;;;6148427;28;88676;-67
2022/06/27 11:24:21;;;;;;;4.10;3.80;;;25.60;98.50;;;;;;6149200;28;89208;-67
2022/06/27 11:27:23;;;;;;;4.13;3.72;;;25.60;98.50;;;;;;6139494;28;89077;-67
2022/06/27 11:33:56;;;;;;;4.00;3.70;;;25.60;98.50;;;;;;6159238;28;88497;-67
2022/06/27 11:37:01;;;;;;;3.90;3.60;;;25.60;98.40;;;;;;6152609;28;89211;-67
2022/06/27 11:40:06;;;;;;;3.85;3.55;;;25.60;98.30;;;;;;6136314;28;89087;-67
2022/06/27 11:43:08;;;;;;;4.00;3.70;;;25.60;98.30;;;;;;6152542;28;89189;-67
2022/06/27 11:46:22;;;;;;;3.90;3.60;;;25.60;98.30;;;;;;6151880;28;89483;-67
2022/06/27 11:49:30;;;;;;;4.00;3.70;;;25.60;98.40;;;;;;6154099;28;89120;-68
2022/06/27 11:52:38;;;;;;;4.20;3.90;;;25.60;98.40;;;;;;6141999;28;88362;-67
2022/06/27 11:55:40;;;;;;;3.95;3.65;;;25.60;98.50;;;;;;6150370;28;89221;-67
2022/06/27 11:58:52;;;;;;;4.10;3.80;;;25.60;98.50;;;;;;6144423;28;87957;-67
2022/06/27 12:01:56;;;;;;;3.80;3.50;;;25.60;98.60;;;;;;6136697;28;90192;-67
2022/06/27 12:05:10;;;;;;;4.15;3.85;;;25.60;98.50;;;;;;6139681;28;89110;-67
2022/06/27 12:08:14;;;;;;;4.00;3.70;;;25.60;98.60;;;;;;6137287;28;88356;-67
2022/06/27 12:11:26;;;;;;;4.22;3.85;;;25.60;98.60;;;;;;6158899;28;88156;-67
2022/06/27 12:14:30;;;;;;;4.22;3.92;;;25.60;99.00;;;;;;6136103;28;89091;-67
2022/06/27 12:17:39;;;;;;;4.00;3.70;;;25.70;98.70;;;;;;6143130;28;89462;-67
2022/06/27 12:20:43;;;;;;;3.90;3.60;;;25.60;98.60;;;;;;6146471;28;89175;-67
2022/06/27 12:23:47;;;;;;;4.00;3.70;;;25.70;98.60;;;;;;6144103;28;88351;-67
2022/06/27 12:26:48;;;;;;;4.18;3.88;;;25.60;98.50;;;;;;6143013;28;89185;-68
2022/06/27 12:29:50;;;;;;;3.90;3.60;;;25.60;98.50;;;;;;6150332;28;89446;-67
2022/06/27 12:32:53;;;;;;;4.18;3.88;;;25.60;98.40;;;;;;6144518;28;90052;-68
2022/06/27 12:35:55;;;;;;;3.80;3.50;;;25.60;98.50;;;;;;6144383;28;89316;-67
2022/06/27 12:38:58;;;;;;;4.00;3.70;;;25.60;98.50;;;;;;6146573;28;88721;-67
2022/06/27 12:42:00;;;;;;;4.10;3.80;;;25.60;98.60;;;;;;6145266;28;90246;-67
2022/06/27 12:45:02;;;;;;;3.95;3.65;;;25.60;98.80;;;;;;6146502;28;89176;-67
2022/06/27 12:48:06;;;;;;;3.90;3.60;;;25.70;98.70;;;;;;6136424;28;89472;-67
2022/06/27 12:51:08;;;;;;;4.10;3.80;;;25.70;98.80;;;;;;6134009;28;89052;-68
2022/06/27 12:54:12;;;;;;;3.85;3.55;;;25.70;98.80;;;;;;6138959;28;88346;-67
2022/06/27 12:57:14;;;;;;;3.80;3.50;;;25.60;98.70;;;;;;6141882;28;89081;-68
2022/06/27 13:00:16;;;;;;;3.90;3.50;;;25.70;98.80;;;;;;6136103;28;89452;-67
2022/06/27 13:03:18;;;;;;;3.95;3.65;;;25.60;98.70;;;;;;6133042;28;90021;-67
2022/06/27 13:06:20;;;;;;;3.88;3.58;;;25.70;98.80;;;;;;6142350;28;89061;-68
2022/06/27 13:09:24;;;;;;;4.00;3.70;;;25.70;98.60;;;;;;6153917;28;89176;-68
2022/06/27 13:12:26;;;;;;;3.83;3.53;;;25.70;98.60;;;;;;6142110;28;88074;-67
2022/06/27 13:15:29;;;;;;;4.20;3.80;;;25.70;98.60;;;;;;6144175;28;90428;-67
2022/06/27 13:18:31;;;;;;;3.80;3.50;;;25.70;98.60;;;;;;6144515;28;89143;-67
2022/06/27 13:21:33;;;;;;;3.95;3.65;;;25.70;98.60;;;;;;6145545;28;89115;-68
2022/06/27 13:24:37;;;;;;;3.92;3.63;;;25.60;98.70;;;;;;6134247;28;88320;-67
2022/06/27 13:27:39;;;;;;;3.80;3.50;;;25.70;98.70;;;;;;6145478;28;89393;-67
2022/06/27 13:30:41;;;;;;;3.92;3.63;;;25.70;98.70;;;;;;6140490;28;89109;-67
2022/06/27 13:33:43;;;;;;;3.80;3.50;;;25.70;98.70;;;;;;6144548;28;89947;-67
2022/06/27 13:36:45;;;;;;;4.00;3.70;;;25.70;98.80;;;;;;6148292;28;87925;-67
2022/06/27 13:39:49;;;;;;;4.28;3.88;;;25.70;98.80;;;;;;6151902;28;89055;-67
2022/06/27 13:42:51;;;;;;;3.95;3.65;;;25.70;98.80;;;;;;6139551;28;89071;-68
2022/06/27 13:45:53;;;;;;;3.90;3.60;;;25.70;98.80;;;;;;6143944;28;89069;-67
2022/06/27 13:48:55;;;;;;;3.80;3.50;;;25.70;98.80;;;;;;6154192;28;89450;-67
2022/06/27 13:51:57;;;;;;;3.58;3.35;;;25.70;98.80;;;;;;6134067;28;89257;-68
2022/06/27 13:55:00;;;;;;;3.70;3.40;;;25.70;98.70;;;;;;6156608;28;88448;-68
2022/06/27 13:58:02;;;;;;;3.80;3.50;;;25.70;98.60;;;;;;6143764;28;89115;-68
2022/06/27 14:01:04;;;;;;;3.80;3.50;;;25.70;98.60;;;;;;6133983;28;87984;-68
2022/06/27 14:04:06;;;;;;;4.10;3.80;;;25.70;98.60;;;;;;6145411;28;89619;-67
2022/06/27 14:10:31;;;;;;;4.00;3.60;;;25.70;98.50;;;;;;6152005;28;87147;-68
2022/06/27 14:13:33;;;;;;;4.22;3.92;;;25.70;98.60;;;;;;6152865;28;89180;-67
2022/06/27 14:16:35;;;;;;;4.35;3.95;;;25.70;98.70;;;;;;6132175;28;89489;-67
2022/06/27 14:19:37;;;;;;;3.88;3.58;;;25.70;98.70;;;;;;6136707;28;88007;-68
2022/06/27 14:22:41;;;;;;;3.97;3.67;;;25.70;98.80;;;;;;6145736;28;89065;-68
2022/06/27 14:25:44;;;;;;;3.80;3.50;;;25.70;98.80;;;;;;6134130;28;88347;-68
2022/06/27 14:28:46;;;;;;;3.47;3.25;;;25.70;98.80;;;;;;6142837;28;89092;-67
2022/06/27 14:31:48;;;;;;;3.72;3.42;;;25.70;98.80;;;;;;6146190;28;89201;-67
2022/06/27 14:34:51;;;;;;;3.90;3.60;;;25.70;98.80;;;;;;6138839;28;90030;-68
2022/06/27 14:37:53;;;;;;;3.70;3.40;;;25.80;99.20;;;;;;6137265;28;89421;-68
2022/06/27 14:40:56;;;;;;;4.20;3.85;;;25.80;98.80;;;;;;6139167;28;89040;-68
2022/06/27 14:43:58;;;;;;;4.05;3.70;;;25.70;98.70;;;;;;6139797;28;89456;-68
2022/06/27 14:47:00;;;;;;;3.80;3.50;;;25.70;98.70;;;;;;6142794;28;89060;-68
2022/06/27 14:50:02;;;;;;;3.70;3.40;;;25.70;98.80;;;;;;6137000;28;87839;-68
2022/06/27 14:53:04;;;;;;;3.70;3.40;;;25.80;98.90;;;;;;6142462;28;89098;-68
2022/06/27 14:56:07;;;;;;;4.10;3.80;;;25.70;98.90;;;;;;6139924;28;88402;-67
2022/06/27 14:59:10;;;;;;;4.38;3.70;;;25.70;99.20;;;;;;6142865;28;89530;-68
2022/06/27 15:02:12;;;;;;;3.70;3.40;;;25.70;99.30;;;;;;6135879;28;89287;-68
2022/06/27 15:05:14;;;;;;;3.90;3.60;;;25.80;99.40;;;;;;6150108;28;90114;-68
2022/06/27 15:08:17;;;;;;;3.75;3.45;;;25.80;99.60;;;;;;6141881;28;89032;-67
2022/06/27 15:11:44;;;;;;;4.28;3.88;;;25.80;99.80;;;;;;6150030;28;89037;-68
2022/06/27 15:14:46;;;;;;;3.90;3.60;;;25.80;99.90;;;;;;6142942;28;87982;-68
2022/06/27 15:17:48;;;;;;;4.10;3.42;;;25.80;99.90;;;;;;6139782;28;89079;-68
2022/06/27 15:20:50;;;;;;;4.05;3.67;;;25.80;99.90;;;;;;6143267;28;89413;-68
2022/06/27 15:23:52;;;;;;;3.85;3.55;;;25.80;99.90;;;;;;6143754;28;89074;-67
2022/06/27 15:26:56;;;;;;;3.85;3.50;;;25.80;99.80;;;;;;6143810;28;87382;-67
2022/06/27 15:29:58;;;;;;;3.80;3.50;;;25.80;99.70;;;;;;6143584;28;89420;-67
2022/06/27 15:33:00;;;;;;;3.70;3.40;;;25.80;99.60;;;;;;6147513;28;89118;-68
2022/06/27 15:36:06;;;;;;;3.70;3.40;;;25.80;99.60;;;;;;6136367;28;89940;-68
2022/06/27 15:39:08;;;;;;;3.88;3.58;;;25.80;99.90;;;;;;6147839;28;87947;-68
2022/06/27 15:42:12;;;;;;;3.97;3.67;;;25.80;99.70;;;;;;6135568;28;89105;-68
2022/06/27 15:45:14;;;;;;;3.72;3.42;;;25.80;99.70;;;;;;6148553;28;89053;-68
2022/06/27 15:48:16;;;;;;;3.58;3.28;;;25.80;99.80;;;;;;6158076;28;89096;-68
2022/06/27 15:51:19;;;;;;;3.80;3.40;;;25.80;99.90;;;;;;6144705;28;89344;-68
2022/06/27 15:54:20;;;;;;;3.67;3.38;;;25.80;99.90;;;;;;6142004;28;89093;-68
2022/06/27 15:57:24;;;;;;;3.55;3.30;;;25.80;99.90;;;;;;6153147;28;88378;-68
2022/06/27 16:00:26;;;;;;;3.80;3.50;;;25.80;99.90;;;;;;6146966;28;89078;-68
2022/06/27 16:03:28;;;;;;;4.32;3.60;;;25.80;99.90;;;;;;6144087;28;88291;-68